Myra Eckstein — WDF9473 — position and weather

sailwx.info

Track history (hours):
 
Tides and Currents Weather Stations Pressure Air Temp Water Temp Dewpoint Dewpoint Depression Visibility Wind Speed Wind Dir Waves Ship Positions

Myra Eckstein

Owner: Marquette Transportation Co. LLC, Paducah, KY. More information available from US FCC via Universal Licensing System and Coast Guard Vessel Documentation Center.

Last reported at 2016-Jun-26 02:33 UTC. Time now 2016-Jun-26 03:00 UTC.
Position N 32°27' W 091°05'.

Length 47 m; draft 3.5 m.

Type: Towing. MMSI: 367505510.

Date/timePositionNaut miles runAvg speedWind from/ knotsBaromVisibWave heightAir tempDewpointWater temp
2016-Jun-26 02:33N 32°27' W 091°05'4 4.2
2016-Jun-26 01:33N 32°25' W 091°00'3 3.1
2016-Jun-26 00:33N 32°22' W 091°00'2 2.0
2016-Jun-25 23:33N 32°21' W 090°58'4 3.9
2016-Jun-25 22:33N 32°20' W 090°54'2 2.0
2016-Jun-25 21:33N 32°18' W 090°55'4 3.7
2016-Jun-25 20:33N 32°15' W 090°58'4 4.0
2016-Jun-25 19:33N 32°11' W 090°60'4 3.9
2016-Jun-25 18:33N 32°08' W 091°01'4 3.9
2016-Jun-25 17:33N 32°08' W 091°05'22 3.2
2016-Jun-25 10:33N 31°50' W 091°21'  
2016-Jun-19 06:07N 31°59' W 091°09'5 8.4
2016-Jun-19 05:33N 32°02' W 091°04'6 6.1
2016-Jun-19 04:33N 32°08' W 091°05'7 7.3
2016-Jun-19 03:33N 32°14' W 090°59'8 7.8
2016-Jun-19 02:33N 32°21' W 090°55'7 7.1
2016-Jun-19 01:33N 32°26' W 091°01'8 7.7
2016-Jun-19 00:33N 32°32' W 091°06'8 8.0
2016-Jun-18 23:33N 32°40' W 091°08'  
Track history (hours):
 
Tides and Currents Weather Stations Pressure Air Temp Water Temp Dewpoint Dewpoint Depression Visibility Wind Speed Wind Dir Waves Ship Positions

Myra Eckstein

Owner: Marquette Transportation Co. LLC, Paducah, KY. More information available from US FCC via Universal Licensing System and Coast Guard Vessel Documentation Center.

Last reported at 2016-Jun-26 02:33 UTC. Time now 2016-Jun-26 03:00 UTC.
Position N 32°27' W 091°05'.

Length 47 m; draft 3.5 m.

Type: Towing. MMSI: 367505510.

Date/timePositionNaut miles runAvg speedWind from/ knotsBaromVisibWave heightAir tempDewpointWater temp
2016-Jun-26 02:33N 32°27' W 091°05'4 4.2
2016-Jun-26 01:33N 32°25' W 091°00'3 3.1
2016-Jun-26 00:33N 32°22' W 091°00'2 2.0
2016-Jun-25 23:33N 32°21' W 090°58'4 3.9
2016-Jun-25 22:33N 32°20' W 090°54'2 2.0
2016-Jun-25 21:33N 32°18' W 090°55'4 3.7
2016-Jun-25 20:33N 32°15' W 090°58'4 4.0
2016-Jun-25 19:33N 32°11' W 090°60'4 3.9
2016-Jun-25 18:33N 32°08' W 091°01'4 3.9
2016-Jun-25 17:33N 32°08' W 091°05'22 3.2
2016-Jun-25 10:33N 31°50' W 091°21'  
2016-Jun-19 06:07N 31°59' W 091°09'5 8.4
2016-Jun-19 05:33N 32°02' W 091°04'6 6.1
2016-Jun-19 04:33N 32°08' W 091°05'7 7.3
2016-Jun-19 03:33N 32°14' W 090°59'8 7.8
2016-Jun-19 02:33N 32°21' W 090°55'7 7.1
2016-Jun-19 01:33N 32°26' W 091°01'8 7.7
2016-Jun-19 00:33N 32°32' W 091°06'8 8.0
2016-Jun-18 23:33N 32°40' W 091°08'  

Dump ship's entire track history